sensor_id;sensor_type;location;lat;lon;timestamp;pressure;altitude;pressure_sealevel;temperature;humidity
40946;BME280;55635;50.264;11.918;2023-07-13T00:00:16;95379.63;;;23.02;47.00
40946;BME280;55635;50.264;11.918;2023-07-13T00:02:57;95379.91;;;23.11;47.23
40946;BME280;55635;50.264;11.918;2023-07-13T00:05:38;95376.09;;;23.12;47.59
40946;BME280;55635;50.264;11.918;2023-07-13T00:08:19;95385.03;;;23.12;47.19
40946;BME280;55635;50.264;11.918;2023-07-13T00:11:03;95393.16;;;23.12;46.61
40946;BME280;55635;50.264;11.918;2023-07-13T00:13:44;95411.56;;;23.10;46.91
40946;BME280;55635;50.264;11.918;2023-07-13T00:16:25;95411.00;;;22.93;46.89
40946;BME280;55635;50.264;11.918;2023-07-13T00:19:06;95426.13;;;22.89;47.05
40946;BME280;55635;50.264;11.918;2023-07-13T00:21:47;95428.28;;;22.87;46.98
40946;BME280;55635;50.264;11.918;2023-07-13T00:24:28;95415.31;;;22.94;47.27
40946;BME280;55635;50.264;11.918;2023-07-13T00:27:10;95407.72;;;22.86;47.18
40946;BME280;55635;50.264;11.918;2023-07-13T00:29:51;95420.47;;;22.96;46.72
40946;BME280;55635;50.264;11.918;2023-07-13T00:32:33;95415.84;;;22.86;46.86
40946;BME280;55635;50.264;11.918;2023-07-13T00:35:15;95391.47;;;22.76;47.00
40946;BME280;55635;50.264;11.918;2023-07-13T00:37:56;95395.44;;;22.58;48.22
40946;BME280;55635;50.264;11.918;2023-07-13T00:40:38;95392.75;;;22.63;48.38
40946;BME280;55635;50.264;11.918;2023-07-13T00:43:22;95385.50;;;22.69;48.31
40946;BME280;55635;50.264;11.918;2023-07-13T00:46:19;95381.75;;;22.80;47.82
40946;BME280;55635;50.264;11.918;2023-07-13T00:49:04;95371.44;;;22.72;47.93
40946;BME280;55635;50.264;11.918;2023-07-13T00:51:57;95366.03;;;22.67;47.94
40946;BME280;55635;50.264;11.918;2023-07-13T00:54:45;95359.84;;;22.76;47.31
40946;BME280;55635;50.264;11.918;2023-07-13T00:57:27;95390.41;;;22.82;47.65
40946;BME280;55635;50.264;11.918;2023-07-13T01:00:09;95388.50;;;22.88;47.91
40946;BME280;55635;50.264;11.918;2023-07-13T01:02:50;95387.19;;;22.95;47.20
40946;BME280;55635;50.264;11.918;2023-07-13T01:05:34;95383.69;;;22.90;48.19
40946;BME280;55635;50.264;11.918;2023-07-13T01:08:16;95386.09;;;22.91;47.75
40946;BME280;55635;50.264;11.918;2023-07-13T01:10:57;95387.72;;;22.87;47.75
40946;BME280;55635;50.264;11.918;2023-07-13T01:13:38;95397.41;;;22.73;49.83
40946;BME280;55635;50.264;11.918;2023-07-13T01:16:29;95389.75;;;22.50;50.64
40946;BME280;55635;50.264;11.918;2023-07-13T01:22:20;95414.03;;;22.40;50.33
40946;BME280;55635;50.264;11.918;2023-07-13T01:25:06;95420.47;;;22.34;50.58
40946;BME280;55635;50.264;11.918;2023-07-13T01:27:47;95396.97;;;22.29;49.73
40946;BME280;55635;50.264;11.918;2023-07-13T01:30:28;95395.38;;;22.38;48.76
40946;BME280;55635;50.264;11.918;2023-07-13T01:33:09;95397.28;;;22.48;48.89
40946;BME280;55635;50.264;11.918;2023-07-13T01:35:51;95395.41;;;22.48;48.97
40946;BME280;55635;50.264;11.918;2023-07-13T01:38:33;95400.28;;;22.46;48.92
40946;BME280;55635;50.264;11.918;2023-07-13T01:41:16;95401.63;;;22.44;48.75
40946;BME280;55635;50.264;11.918;2023-07-13T01:43:57;95400.19;;;22.26;49.45
40946;BME280;55635;50.264;11.918;2023-07-13T01:46:38;95393.41;;;22.23;49.50
40946;BME280;55635;50.264;11.918;2023-07-13T01:49:19;95395.28;;;22.18;49.65
40946;BME280;55635;50.264;11.918;2023-07-13T01:52:00;95388.50;;;22.10;49.48
40946;BME280;55635;50.264;11.918;2023-07-13T01:54:41;95399.25;;;22.05;50.51
40946;BME280;55635;50.264;11.918;2023-07-13T01:57:23;95391.66;;;21.97;50.29
40946;BME280;55635;50.264;11.918;2023-07-13T02:00:06;95389.38;;;21.84;50.42
40946;BME280;55635;50.264;11.918;2023-07-13T02:02:56;95393.72;;;21.85;50.52
40946;BME280;55635;50.264;11.918;2023-07-13T02:05:37;95384.94;;;21.68;51.06
40946;BME280;55635;50.264;11.918;2023-07-13T02:08:18;95387.91;;;21.61;51.72
40946;BME280;55635;50.264;11.918;2023-07-13T02:10:59;95390.22;;;21.48;52.08
40946;BME280;55635;50.264;11.918;2023-07-13T02:13:40;95388.34;;;21.48;51.66
40946;BME280;55635;50.264;11.918;2023-07-13T02:16:21;95378.88;;;21.46;51.35
40946;BME280;55635;50.264;11.918;2023-07-13T02:19:03;95377.72;;;21.37;51.72
40946;BME280;55635;50.264;11.918;2023-07-13T02:21:43;95373.94;;;21.38;51.81
40946;BME280;55635;50.264;11.918;2023-07-13T02:24:25;95380.38;;;21.32;51.98
40946;BME280;55635;50.264;11.918;2023-07-13T02:27:06;95372.94;;;21.12;52.68
40946;BME280;55635;50.264;11.918;2023-07-13T02:29:48;95383.03;;;21.27;52.42
40946;BME280;55635;50.264;11.918;2023-07-13T02:32:35;95397.59;;;21.26;52.69
40946;BME280;55635;50.264;11.918;2023-07-13T02:35:16;95388.31;;;21.11;53.29
40946;BME280;55635;50.264;11.918;2023-07-13T02:37:57;95396.53;;;21.00;52.99
40946;BME280;55635;50.264;11.918;2023-07-13T02:40:38;95390.78;;;20.91;52.97
40946;BME280;55635;50.264;11.918;2023-07-13T02:43:19;95404.28;;;20.91;52.77
40946;BME280;55635;50.264;11.918;2023-07-13T02:46:02;95414.38;;;20.79;53.18
40946;BME280;55635;50.264;11.918;2023-07-13T02:48:49;95413.75;;;20.72;54.11
40946;BME280;55635;50.264;11.918;2023-07-13T02:51:30;95412.00;;;20.61;53.90
40946;BME280;55635;50.264;11.918;2023-07-13T02:54:14;95425.63;;;20.49;54.43
40946;BME280;55635;50.264;11.918;2023-07-13T02:56:56;95427.44;;;20.44;54.61
40946;BME280;55635;50.264;11.918;2023-07-13T02:59:37;95430.09;;;20.39;55.77
40946;BME280;55635;50.264;11.918;2023-07-13T03:02:17;95418.63;;;20.10;55.56
40946;BME280;55635;50.264;11.918;2023-07-13T03:04:58;95424.78;;;19.89;56.05
40946;BME280;55635;50.264;11.918;2023-07-13T03:07:39;95421.56;;;19.87;56.35
40946;BME280;55635;50.264;11.918;2023-07-13T03:10:21;95407.44;;;19.80;57.13
40946;BME280;55635;50.264;11.918;2023-07-13T03:13:05;95408.69;;;19.72;57.40
40946;BME280;55635;50.264;11.918;2023-07-13T03:15:48;95417.97;;;19.81;56.63
40946;BME280;55635;50.264;11.918;2023-07-13T03:18:30;95412.44;;;19.71;56.76
40946;BME280;55635;50.264;11.918;2023-07-13T03:21:15;95424.97;;;19.82;56.20
40946;BME280;55635;50.264;11.918;2023-07-13T03:23:57;95416.66;;;19.84;56.22
40946;BME280;55635;50.264;11.918;2023-07-13T03:26:38;95423.91;;;19.83;56.75
40946;BME280;55635;50.264;11.918;2023-07-13T03:29:20;95430.13;;;19.84;57.07
40946;BME280;55635;50.264;11.918;2023-07-13T03:32:02;95420.22;;;19.89;56.10
40946;BME280;55635;50.264;11.918;2023-07-13T03:34:46;95417.16;;;19.64;57.14
40946;BME280;55635;50.264;11.918;2023-07-13T03:37:28;95436.09;;;19.52;57.43
40946;BME280;55635;50.264;11.918;2023-07-13T03:40:10;95429.53;;;19.32;57.65
40946;BME280;55635;50.264;11.918;2023-07-13T03:42:55;95446.50;;;19.32;57.88
40946;BME280;55635;50.264;11.918;2023-07-13T03:45:40;95450.19;;;19.43;57.38
40946;BME280;55635;50.264;11.918;2023-07-13T03:48:21;95452.72;;;19.49;57.80
40946;BME280;55635;50.264;11.918;2023-07-13T03:51:02;95459.81;;;19.55;57.37
40946;BME280;55635;50.264;11.918;2023-07-13T03:53:46;95456.13;;;19.45;58.05
40946;BME280;55635;50.264;11.918;2023-07-13T03:56:29;95456.28;;;19.38;58.35
40946;BME280;55635;50.264;11.918;2023-07-13T03:59:15;95469.72;;;19.38;58.55
40946;BME280;55635;50.264;11.918;2023-07-13T04:01:56;95471.91;;;19.25;58.78
40946;BME280;55635;50.264;11.918;2023-07-13T04:04:37;95487.72;;;19.38;58.31
40946;BME280;55635;50.264;11.918;2023-07-13T04:07:21;95486.50;;;19.29;59.33
40946;BME280;55635;50.264;11.918;2023-07-13T04:10:02;95489.19;;;19.29;58.43
40946;BME280;55635;50.264;11.918;2023-07-13T04:12:48;95498.63;;;19.31;59.31
40946;BME280;55635;50.264;11.918;2023-07-13T04:15:32;95488.88;;;19.42;58.57
40946;BME280;55635;50.264;11.918;2023-07-13T04:18:13;95494.59;;;19.45;59.87
40946;BME280;55635;50.264;11.918;2023-07-13T04:20:54;95490.69;;;19.53;58.75
40946;BME280;55635;50.264;11.918;2023-07-13T04:23:36;95481.06;;;19.57;58.92
40946;BME280;55635;50.264;11.918;2023-07-13T04:26:17;95483.53;;;19.59;59.67
40946;BME280;55635;50.264;11.918;2023-07-13T04:28:59;95484.03;;;19.72;59.36
40946;BME280;55635;50.264;11.918;2023-07-13T04:31:40;95482.72;;;19.75;59.40
40946;BME280;55635;50.264;11.918;2023-07-13T04:34:21;95498.44;;;19.83;59.47
40946;BME280;55635;50.264;11.918;2023-07-13T04:37:03;95501.72;;;19.68;61.19
40946;BME280;55635;50.264;11.918;2023-07-13T04:39:45;95496.34;;;19.68;62.37
40946;BME280;55635;50.264;11.918;2023-07-13T04:42:26;95494.50;;;19.57;61.91
40946;BME280;55635;50.264;11.918;2023-07-13T04:45:07;95493.31;;;19.65;60.97
40946;BME280;55635;50.264;11.918;2023-07-13T04:47:48;95497.97;;;19.69;61.32
40946;BME280;55635;50.264;11.918;2023-07-13T04:50:29;95497.16;;;19.69;61.77
40946;BME280;55635;50.264;11.918;2023-07-13T04:53:10;95502.28;;;19.87;60.84
40946;BME280;55635;50.264;11.918;2023-07-13T04:55:52;95498.50;;;19.88;60.88
40946;BME280;55635;50.264;11.918;2023-07-13T04:58:33;95503.22;;;20.14;60.08
40946;BME280;55635;50.264;11.918;2023-07-13T05:01:14;95498.41;;;20.33;60.14
40946;BME280;55635;50.264;11.918;2023-07-13T05:03:55;95494.78;;;20.44;59.89
40946;BME280;55635;50.264;11.918;2023-07-13T05:06:38;95502.31;;;20.63;58.01
40946;BME280;55635;50.264;11.918;2023-07-13T05:09:19;95508.13;;;20.77;58.46
40946;BME280;55635;50.264;11.918;2023-07-13T05:12:00;95499.63;;;20.85;58.16
40946;BME280;55635;50.264;11.918;2023-07-13T05:14:41;95516.56;;;21.07;56.86
40946;BME280;55635;50.264;11.918;2023-07-13T05:17:22;95519.19;;;21.19;57.37
40946;BME280;55635;50.264;11.918;2023-07-13T05:20:03;95517.03;;;21.21;57.68
40946;BME280;55635;50.264;11.918;2023-07-13T05:22:44;95516.25;;;21.26;57.93
40946;BME280;55635;50.264;11.918;2023-07-13T05:25:27;95511.28;;;21.12;58.43
40946;BME280;55635;50.264;11.918;2023-07-13T05:28:08;95520.06;;;21.25;57.90
40946;BME280;55635;50.264;11.918;2023-07-13T05:30:50;95518.78;;;21.10;57.89
40946;BME280;55635;50.264;11.918;2023-07-13T05:33:31;95513.22;;;21.17;57.42
40946;BME280;55635;50.264;11.918;2023-07-13T05:36:12;95521.97;;;21.29;56.48
40946;BME280;55635;50.264;11.918;2023-07-13T05:38:53;95521.94;;;21.56;55.70
40946;BME280;55635;50.264;11.918;2023-07-13T05:41:35;95517.19;;;21.68;54.84
40946;BME280;55635;50.264;11.918;2023-07-13T05:44:16;95514.75;;;21.93;54.51
40946;BME280;55635;50.264;11.918;2023-07-13T05:46:57;95517.09;;;22.16;54.80
40946;BME280;55635;50.264;11.918;2023-07-13T05:49:38;95515.13;;;22.44;52.87
40946;BME280;55635;50.264;11.918;2023-07-13T05:52:19;95506.25;;;22.53;50.91
40946;BME280;55635;50.264;11.918;2023-07-13T05:55:00;95500.66;;;22.65;49.30
40946;BME280;55635;50.264;11.918;2023-07-13T05:57:41;95485.94;;;22.51;49.59
40946;BME280;55635;50.264;11.918;2023-07-13T06:00:22;95502.25;;;22.66;49.91
40946;BME280;55635;50.264;11.918;2023-07-13T06:03:03;95510.72;;;22.74;48.73
40946;BME280;55635;50.264;11.918;2023-07-13T06:05:44;95492.63;;;22.80;47.79
40946;BME280;55635;50.264;11.918;2023-07-13T06:08:24;95498.66;;;23.12;46.66
40946;BME280;55635;50.264;11.918;2023-07-13T06:13:51;95509.53;;;23.27;45.24
40946;BME280;55635;50.264;11.918;2023-07-13T06:16:32;95503.94;;;23.54;45.47
40946;BME280;55635;50.264;11.918;2023-07-13T06:19:13;95512.91;;;23.75;45.72
40946;BME280;55635;50.264;11.918;2023-07-13T06:21:54;95504.78;;;23.90;44.63
40946;BME280;55635;50.264;11.918;2023-07-13T06:24:35;95505.81;;;24.45;43.59
40946;BME280;55635;50.264;11.918;2023-07-13T06:27:19;95514.41;;;24.92;42.29
40946;BME280;55635;50.264;11.918;2023-07-13T06:30:02;95519.28;;;25.49;41.13
40946;BME280;55635;50.264;11.918;2023-07-13T06:32:43;95522.00;;;25.44;40.76
40946;BME280;55635;50.264;11.918;2023-07-13T06:35:24;95522.53;;;25.46;40.16
40946;BME280;55635;50.264;11.918;2023-07-13T06:38:05;95521.06;;;26.03;39.89
40946;BME280;55635;50.264;11.918;2023-07-13T06:40:46;95515.72;;;26.55;39.10
40946;BME280;55635;50.264;11.918;2023-07-13T06:43:27;95519.94;;;26.95;38.47
40946;BME280;55635;50.264;11.918;2023-07-13T06:46:10;95521.97;;;27.50;37.76
40946;BME280;55635;50.264;11.918;2023-07-13T06:48:51;95531.88;;;27.41;36.92
40946;BME280;55635;50.264;11.918;2023-07-13T06:51:32;95529.63;;;26.54;37.69
40946;BME280;55635;50.264;11.918;2023-07-13T06:54:13;95525.47;;;26.32;38.76
40946;BME280;55635;50.264;11.918;2023-07-13T06:56:54;95522.72;;;25.60;38.79
40946;BME280;55635;50.264;11.918;2023-07-13T06:59:35;95532.09;;;25.33;39.26
40946;BME280;55635;50.264;11.918;2023-07-13T07:02:16;95544.03;;;25.32;39.88
40946;BME280;55635;50.264;11.918;2023-07-13T07:04:57;95539.50;;;25.18;40.59
40946;BME280;55635;50.264;11.918;2023-07-13T07:07:38;95545.47;;;25.20;40.95
40946;BME280;55635;50.264;11.918;2023-07-13T07:10:19;95550.25;;;25.92;39.80
40946;BME280;55635;50.264;11.918;2023-07-13T07:13:01;95550.41;;;26.39;37.47
40946;BME280;55635;50.264;11.918;2023-07-13T07:15:41;95542.75;;;26.70;37.29
40946;BME280;55635;50.264;11.918;2023-07-13T07:18:22;95538.25;;;27.32;36.93
40946;BME280;55635;50.264;11.918;2023-07-13T07:21:04;95547.47;;;27.60;35.79
40946;BME280;55635;50.264;11.918;2023-07-13T07:23:46;95551.09;;;27.08;36.01
40946;BME280;55635;50.264;11.918;2023-07-13T07:26:27;95548.44;;;26.74;36.26
40946;BME280;55635;50.264;11.918;2023-07-13T07:29:07;95554.09;;;26.54;36.93
40946;BME280;55635;50.264;11.918;2023-07-13T07:31:49;95552.78;;;26.51;37.91
40946;BME280;55635;50.264;11.918;2023-07-13T07:34:31;95554.47;;;26.08;37.96
40946;BME280;55635;50.264;11.918;2023-07-13T07:37:14;95555.63;;;26.36;38.11
40946;BME280;55635;50.264;11.918;2023-07-13T07:39:55;95561.81;;;26.70;37.52
40946;BME280;55635;50.264;11.918;2023-07-13T07:42:36;95567.41;;;27.74;37.80
40946;BME280;55635;50.264;11.918;2023-07-13T07:45:16;95561.22;;;28.56;33.95
40946;BME280;55635;50.264;11.918;2023-07-13T07:47:57;95558.34;;;29.26;33.43
40946;BME280;55635;50.264;11.918;2023-07-13T07:50:39;95554.22;;;29.64;32.80
40946;BME280;55635;50.264;11.918;2023-07-13T07:53:20;95559.75;;;29.37;32.90
40946;BME280;55635;50.264;11.918;2023-07-13T07:56:01;95547.47;;;29.21;32.24
40946;BME280;55635;50.264;11.918;2023-07-13T07:58:43;95557.19;;;29.54;33.22
40946;BME280;55635;50.264;11.918;2023-07-13T08:01:24;95547.81;;;30.18;31.29
40946;BME280;55635;50.264;11.918;2023-07-13T08:04:05;95550.59;;;30.71;30.84
40946;BME280;55635;50.264;11.918;2023-07-13T08:06:46;95550.13;;;30.47;30.43
40946;BME280;55635;50.264;11.918;2023-07-13T08:09:26;95554.00;;;30.99;30.59
40946;BME280;55635;50.264;11.918;2023-07-13T08:12:08;95559.50;;;30.10;31.39
40946;BME280;55635;50.264;11.918;2023-07-13T08:14:52;95548.69;;;29.15;32.62
40946;BME280;55635;50.264;11.918;2023-07-13T08:17:38;95556.47;;;28.48;33.78
40946;BME280;55635;50.264;11.918;2023-07-13T08:20:19;95567.25;;;28.40;33.83
40946;BME280;55635;50.264;11.918;2023-07-13T08:22:59;95566.25;;;28.68;34.45
40946;BME280;55635;50.264;11.918;2023-07-13T08:25:40;95572.50;;;28.69;33.21
40946;BME280;55635;50.264;11.918;2023-07-13T08:28:22;95558.47;;;28.43;33.84
40946;BME280;55635;50.264;11.918;2023-07-13T08:31:05;95567.03;;;27.99;34.18
40946;BME280;55635;50.264;11.918;2023-07-13T08:33:46;95571.38;;;27.20;34.53
40946;BME280;55635;50.264;11.918;2023-07-13T08:36:27;95575.31;;;27.33;33.95
40946;BME280;55635;50.264;11.918;2023-07-13T08:39:08;95575.22;;;27.38;33.92
40946;BME280;55635;50.264;11.918;2023-07-13T08:41:56;95577.94;;;27.43;33.01
40946;BME280;55635;50.264;11.918;2023-07-13T08:45:01;95588.25;;;27.46;32.87
40946;BME280;55635;50.264;11.918;2023-07-13T08:47:53;95583.41;;;27.80;32.93
40946;BME280;55635;50.264;11.918;2023-07-13T08:54:07;95586.66;;;27.16;35.05
40946;BME280;55635;50.264;11.918;2023-07-13T08:56:53;95590.31;;;26.78;35.12
40946;BME280;55635;50.264;11.918;2023-07-13T08:59:34;95599.38;;;26.68;35.83
40946;BME280;55635;50.264;11.918;2023-07-13T09:02:54;95601.38;;;26.29;35.63
40946;BME280;55635;50.264;11.918;2023-07-13T09:05:40;95608.22;;;26.21;36.67
40946;BME280;55635;50.264;11.918;2023-07-13T09:11:52;95595.22;;;26.76;35.06
40946;BME280;55635;50.264;11.918;2023-07-13T09:14:47;95607.69;;;27.34;34.64
40946;BME280;55635;50.264;11.918;2023-07-13T09:17:37;95614.19;;;27.62;34.96
40946;BME280;55635;50.264;11.918;2023-07-13T09:20:40;95619.41;;;27.11;34.77
40946;BME280;55635;50.264;11.918;2023-07-13T09:23:24;95611.41;;;26.62;35.29
40946;BME280;55635;50.264;11.918;2023-07-13T09:29:14;95629.22;;;26.83;35.83
40946;BME280;55635;50.264;11.918;2023-07-13T09:32:01;95630.47;;;26.62;35.82
40946;BME280;55635;50.264;11.918;2023-07-13T09:34:51;95627.78;;;26.91;34.53
40946;BME280;55635;50.264;11.918;2023-07-13T09:37:32;95637.97;;;27.04;34.59
40946;BME280;55635;50.264;11.918;2023-07-13T09:40:24;95614.13;;;27.20;33.04
40946;BME280;55635;50.264;11.918;2023-07-13T09:43:13;95612.56;;;28.22;34.55
40946;BME280;55635;50.264;11.918;2023-07-13T09:45:56;95631.56;;;28.27;32.71
40946;BME280;55635;50.264;11.918;2023-07-13T09:48:37;95611.66;;;28.08;32.67
40946;BME280;55635;50.264;11.918;2023-07-13T09:51:18;95625.66;;;27.12;34.43
40946;BME280;55635;50.264;11.918;2023-07-13T09:53:59;95638.19;;;26.84;35.07
40946;BME280;55635;50.264;11.918;2023-07-13T09:56:40;95638.94;;;27.18;34.63
40946;BME280;55635;50.264;11.918;2023-07-13T09:59:23;95641.72;;;26.84;34.72
40946;BME280;55635;50.264;11.918;2023-07-13T10:02:33;95635.88;;;27.48;34.61
40946;BME280;55635;50.264;11.918;2023-07-13T10:05:14;95632.44;;;26.85;33.98
40946;BME280;55635;50.264;11.918;2023-07-13T10:07:57;95632.50;;;27.56;34.23
40946;BME280;55635;50.264;11.918;2023-07-13T10:10:37;95620.44;;;28.24;30.84
40946;BME280;55635;50.264;11.918;2023-07-13T10:13:32;95618.66;;;28.97;30.22
40946;BME280;55635;50.264;11.918;2023-07-13T10:16:18;95633.84;;;28.20;30.84
40946;BME280;55635;50.264;11.918;2023-07-13T10:19:07;95627.06;;;26.80;34.26
40946;BME280;55635;50.264;11.918;2023-07-13T10:21:57;95626.56;;;27.02;34.29
40946;BME280;55635;50.264;11.918;2023-07-13T10:24:40;95629.75;;;28.74;30.36
40946;BME280;55635;50.264;11.918;2023-07-13T10:27:40;95616.50;;;29.67;30.46
40946;BME280;55635;50.264;11.918;2023-07-13T10:30:31;95625.59;;;29.77;29.18
40946;BME280;55635;50.264;11.918;2023-07-13T10:33:14;95624.47;;;28.26;29.65
40946;BME280;55635;50.264;11.918;2023-07-13T10:39:04;95621.28;;;27.82;31.42
40946;BME280;55635;50.264;11.918;2023-07-13T10:42:00;95629.84;;;26.36;32.08
40946;BME280;55635;50.264;11.918;2023-07-13T10:44:43;95634.34;;;26.17;33.56
40946;BME280;55635;50.264;11.918;2023-07-13T10:47:24;95640.94;;;27.79;30.84
40946;BME280;55635;50.264;11.918;2023-07-13T10:50:15;95615.28;;;29.46;31.45
40946;BME280;55635;50.264;11.918;2023-07-13T10:53:17;95622.56;;;29.64;28.83
40946;BME280;55635;50.264;11.918;2023-07-13T10:59:09;95632.81;;;28.16;31.44
40946;BME280;55635;50.264;11.918;2023-07-13T11:02:43;95616.00;;;27.24;30.90
40946;BME280;55635;50.264;11.918;2023-07-13T11:05:29;95626.94;;;26.62;31.02
40946;BME280;55635;50.264;11.918;2023-07-13T11:11:38;95621.50;;;30.37;27.66
40946;BME280;55635;50.264;11.918;2023-07-13T11:14:43;95618.84;;;30.90;26.37
40946;BME280;55635;50.264;11.918;2023-07-13T11:17:48;95604.72;;;31.19;26.65
40946;BME280;55635;50.264;11.918;2023-07-13T11:20:40;95617.47;;;28.39;28.49
40946;BME280;55635;50.264;11.918;2023-07-13T11:23:30;95618.47;;;28.94;29.36
40946;BME280;55635;50.264;11.918;2023-07-13T11:29:33;95607.69;;;29.84;29.13
40946;BME280;55635;50.264;11.918;2023-07-13T11:32:25;95607.22;;;30.85;27.80
40946;BME280;55635;50.264;11.918;2023-07-13T11:35:22;95608.41;;;31.23;25.23
40946;BME280;55635;50.264;11.918;2023-07-13T11:38:21;95595.34;;;31.59;24.59
40946;BME280;55635;50.264;11.918;2023-07-13T11:41:17;95598.31;;;30.35;28.00
40946;BME280;55635;50.264;11.918;2023-07-13T11:44:27;95601.25;;;31.05;26.20
40946;BME280;55635;50.264;11.918;2023-07-13T11:47:17;95588.41;;;31.53;25.59
40946;BME280;55635;50.264;11.918;2023-07-13T11:49:58;95597.03;;;30.99;24.02
40946;BME280;55635;50.264;11.918;2023-07-13T11:52:40;95597.31;;;29.95;25.51
40946;BME280;55635;50.264;11.918;2023-07-13T11:55:22;95592.59;;;29.87;24.82
40946;BME280;55635;50.264;11.918;2023-07-13T11:58:04;95591.16;;;31.22;25.61
40946;BME280;55635;50.264;11.918;2023-07-13T12:00:46;95601.41;;;31.39;24.63
40946;BME280;55635;50.264;11.918;2023-07-13T12:03:28;95616.88;;;30.82;25.31
40946;BME280;55635;50.264;11.918;2023-07-13T12:06:31;95588.88;;;30.41;24.98
40946;BME280;55635;50.264;11.918;2023-07-13T12:09:14;95584.91;;;31.70;23.77
40946;BME280;55635;50.264;11.918;2023-07-13T12:12:01;95591.19;;;31.70;23.17
40946;BME280;55635;50.264;11.918;2023-07-13T12:14:41;95593.78;;;31.67;23.10
40946;BME280;55635;50.264;11.918;2023-07-13T12:17:24;95600.91;;;31.85;23.21
40946;BME280;55635;50.264;11.918;2023-07-13T12:20:24;95593.78;;;31.27;22.94
40946;BME280;55635;50.264;11.918;2023-07-13T12:23:22;95586.81;;;31.52;23.09
40946;BME280;55635;50.264;11.918;2023-07-13T12:26:06;95602.06;;;31.45;23.61
40946;BME280;55635;50.264;11.918;2023-07-13T12:28:54;95592.63;;;29.32;24.35
40946;BME280;55635;50.264;11.918;2023-07-13T12:31:44;95595.38;;;28.73;25.92
40946;BME280;55635;50.264;11.918;2023-07-13T12:34:26;95598.28;;;29.90;26.29
40946;BME280;55635;50.264;11.918;2023-07-13T12:37:12;95595.00;;;29.88;25.28
40946;BME280;55635;50.264;11.918;2023-07-13T12:39:54;95611.03;;;30.75;24.85
40946;BME280;55635;50.264;11.918;2023-07-13T12:42:38;95610.22;;;30.30;24.55
40946;BME280;55635;50.264;11.918;2023-07-13T12:45:26;95602.28;;;30.42;25.09
40946;BME280;55635;50.264;11.918;2023-07-13T12:48:16;95613.56;;;29.64;25.84
40946;BME280;55635;50.264;11.918;2023-07-13T12:51:00;95605.72;;;27.64;27.48
40946;BME280;55635;50.264;11.918;2023-07-13T12:53:49;95614.00;;;27.06;29.93
40946;BME280;55635;50.264;11.918;2023-07-13T12:56:33;95614.81;;;27.96;28.19
40946;BME280;55635;50.264;11.918;2023-07-13T12:59:22;95604.25;;;28.65;26.40
40946;BME280;55635;50.264;11.918;2023-07-13T13:02:32;95604.94;;;30.56;24.33
40946;BME280;55635;50.264;11.918;2023-07-13T13:05:14;95612.91;;;30.66;25.77
40946;BME280;55635;50.264;11.918;2023-07-13T13:07:55;95605.56;;;31.28;24.95
40946;BME280;55635;50.264;11.918;2023-07-13T13:10:37;95608.28;;;30.75;24.26
40946;BME280;55635;50.264;11.918;2023-07-13T13:13:18;95610.38;;;30.11;25.16
40946;BME280;55635;50.264;11.918;2023-07-13T13:16:22;95615.78;;;29.89;25.42
40946;BME280;55635;50.264;11.918;2023-07-13T13:19:28;95616.41;;;29.86;25.70
40946;BME280;55635;50.264;11.918;2023-07-13T13:22:09;95618.19;;;30.40;25.36
40946;BME280;55635;50.264;11.918;2023-07-13T13:24:50;95618.72;;;30.42;25.79
40946;BME280;55635;50.264;11.918;2023-07-13T13:27:31;95621.63;;;31.21;25.01
40946;BME280;55635;50.264;11.918;2023-07-13T13:30:15;95615.50;;;30.93;25.61
40946;BME280;55635;50.264;11.918;2023-07-13T13:32:56;95620.75;;;31.03;25.54
40946;BME280;55635;50.264;11.918;2023-07-13T13:35:37;95620.88;;;30.54;24.55
40946;BME280;55635;50.264;11.918;2023-07-13T13:38:27;95624.69;;;30.66;24.16
40946;BME280;55635;50.264;11.918;2023-07-13T13:41:10;95604.97;;;31.48;24.95
40946;BME280;55635;50.264;11.918;2023-07-13T13:43:51;95617.06;;;31.47;23.92
40946;BME280;55635;50.264;11.918;2023-07-13T13:46:32;95623.66;;;30.62;24.11
40946;BME280;55635;50.264;11.918;2023-07-13T13:49:16;95627.97;;;31.69;24.46
40946;BME280;55635;50.264;11.918;2023-07-13T13:51:58;95634.81;;;29.94;24.93
40946;BME280;55635;50.264;11.918;2023-07-13T13:54:40;95620.88;;;30.18;26.17
40946;BME280;55635;50.264;11.918;2023-07-13T13:57:21;95625.97;;;30.47;25.30
40946;BME280;55635;50.264;11.918;2023-07-13T14:00:04;95624.81;;;30.39;25.12
40946;BME280;55635;50.264;11.918;2023-07-13T14:02:48;95622.03;;;31.06;24.75
40946;BME280;55635;50.264;11.918;2023-07-13T14:05:31;95625.88;;;30.83;24.52
40946;BME280;55635;50.264;11.918;2023-07-13T14:08:18;95627.59;;;31.23;25.09
40946;BME280;55635;50.264;11.918;2023-07-13T14:11:00;95637.22;;;31.12;24.54
40946;BME280;55635;50.264;11.918;2023-07-13T14:13:48;95637.75;;;31.53;24.29
40946;BME280;55635;50.264;11.918;2023-07-13T14:16:31;95628.19;;;31.11;24.01
40946;BME280;55635;50.264;11.918;2023-07-13T14:19:14;95632.88;;;31.98;24.18
40946;BME280;55635;50.264;11.918;2023-07-13T14:21:55;95624.88;;;32.19;23.61
40946;BME280;55635;50.264;11.918;2023-07-13T14:24:36;95629.44;;;31.84;23.49
40946;BME280;55635;50.264;11.918;2023-07-13T14:27:17;95637.00;;;31.70;23.97
40946;BME280;55635;50.264;11.918;2023-07-13T14:29:58;95621.53;;;30.01;24.60
40946;BME280;55635;50.264;11.918;2023-07-13T14:32:38;95640.09;;;29.77;26.40
40946;BME280;55635;50.264;11.918;2023-07-13T14:35:21;95638.34;;;29.27;26.18
40946;BME280;55635;50.264;11.918;2023-07-13T14:38:04;95639.78;;;29.38;26.92
40946;BME280;55635;50.264;11.918;2023-07-13T14:40:46;95628.69;;;30.11;25.80
40946;BME280;55635;50.264;11.918;2023-07-13T14:43:27;95630.88;;;29.59;26.34
40946;BME280;55635;50.264;11.918;2023-07-13T14:46:30;95635.44;;;29.37;26.33